createdAt,value
2023-12-24T00:01:09.449Z,26.93
2023-12-24T00:03:41.370Z,26.86
2023-12-24T00:06:12.660Z,26.75
2023-12-24T00:08:43.214Z,26.75
2023-12-24T00:11:13.760Z,26.78
2023-12-24T00:13:44.374Z,26.72
2023-12-24T00:16:14.843Z,26.67
2023-12-24T00:18:45.486Z,26.65
2023-12-24T00:21:16.940Z,26.68
2023-12-24T00:23:49.067Z,26.69
2023-12-24T00:26:20.626Z,26.58
2023-12-24T00:28:53.044Z,26.50
2023-12-24T00:31:23.653Z,26.58
2023-12-24T00:33:54.197Z,26.56
2023-12-24T00:36:24.867Z,26.55
2023-12-24T00:38:55.967Z,26.47
2023-12-24T00:41:26.700Z,26.47
2023-12-24T00:43:57.214Z,26.39
2023-12-24T00:46:28.207Z,26.35
2023-12-24T00:48:58.765Z,26.32
2023-12-24T00:51:29.482Z,26.36
2023-12-24T00:54:00.118Z,26.04
2023-12-24T00:56:30.888Z,26.15
2023-12-24T00:59:01.401Z,26.17
2023-12-24T01:01:32.183Z,26.11
2023-12-24T01:04:02.799Z,26.07
2023-12-24T01:06:33.488Z,25.96
2023-12-24T01:09:04.093Z,25.73
2023-12-24T01:11:34.894Z,25.88
2023-12-24T01:14:05.480Z,26.03
2023-12-24T01:16:36.257Z,26.09
2023-12-24T01:19:06.841Z,26.17
2023-12-24T01:21:37.873Z,26.19
2023-12-24T01:24:09.576Z,26.11
2023-12-24T01:26:40.703Z,26.10
2023-12-24T01:29:11.319Z,26.12
2023-12-24T01:31:43.446Z,26.10
2023-12-24T01:34:14.086Z,26.17
2023-12-24T01:36:44.865Z,26.13
2023-12-24T01:39:16.748Z,26.21
2023-12-24T01:41:50.119Z,26.22
2023-12-24T01:44:20.738Z,26.22
2023-12-24T01:46:51.484Z,26.20
2023-12-24T01:49:22.088Z,26.24
2023-12-24T01:51:53.626Z,26.25
2023-12-24T01:54:25.259Z,26.29
2023-12-24T01:56:55.919Z,26.38
2023-12-24T01:59:27.114Z,26.31
2023-12-24T02:01:58.085Z,26.30
2023-12-24T02:04:28.709Z,26.37
2023-12-24T02:06:59.537Z,26.35
2023-12-24T02:09:30.269Z,26.43
2023-12-24T02:12:00.939Z,26.44
2023-12-24T02:14:31.695Z,26.48
2023-12-24T02:17:03.835Z,26.39
2023-12-24T02:19:34.784Z,26.49
2023-12-24T02:22:05.540Z,26.50
2023-12-24T02:24:36.351Z,26.51
2023-12-24T02:27:30.106Z,26.54
2023-12-24T02:30:07.874Z,26.56
2023-12-24T02:32:41.743Z,26.51
2023-12-24T02:35:14.255Z,26.60
2023-12-24T02:37:46.435Z,26.61
2023-12-24T02:40:17.227Z,26.63
2023-12-24T02:42:48.561Z,26.60
2023-12-24T02:45:19.390Z,26.65
2023-12-24T02:47:50.344Z,26.71
2023-12-24T02:50:23.215Z,26.76
2023-12-24T02:52:54.298Z,26.64
2023-12-24T02:55:27.061Z,26.73
2023-12-24T02:57:57.536Z,26.76
2023-12-24T03:00:28.245Z,26.77
2023-12-24T03:02:58.809Z,26.69
2023-12-24T03:05:29.516Z,26.67
2023-12-24T03:08:00.201Z,26.66
2023-12-24T03:10:30.769Z,26.69
2023-12-24T03:13:01.375Z,26.54
2023-12-24T03:15:31.918Z,26.59
2023-12-24T03:18:04.035Z,26.57
2023-12-24T03:20:34.717Z,26.61
2023-12-24T03:23:05.346Z,26.57
2023-12-24T03:25:35.917Z,26.52
2023-12-24T03:28:06.578Z,26.36
2023-12-24T03:30:37.101Z,26.42
2023-12-24T03:33:07.878Z,26.39
2023-12-24T03:35:38.582Z,26.58
2023-12-24T03:38:09.340Z,26.58
2023-12-24T03:40:40.149Z,26.54
2023-12-24T03:43:10.959Z,26.54
2023-12-24T03:45:41.513Z,26.56
2023-12-24T03:48:15.571Z,26.63
2023-12-24T03:50:46.794Z,26.55
2023-12-24T03:53:17.502Z,26.58
2023-12-24T03:55:48.280Z,26.56
2023-12-24T03:58:18.976Z,26.64
2023-12-24T04:00:49.741Z,26.64
2023-12-24T04:03:20.381Z,26.64
2023-12-24T04:05:51.253Z,26.70
2023-12-24T04:08:21.983Z,26.65
2023-12-24T04:10:52.562Z,26.69
2023-12-24T04:13:23.293Z,26.71
2023-12-24T04:15:53.817Z,26.77
2023-12-24T04:18:24.669Z,26.74
2023-12-24T04:20:55.633Z,26.74
2023-12-24T04:23:26.475Z,26.77
2023-12-24T04:25:57.127Z,26.75
2023-12-24T04:28:28.751Z,26.58
2023-12-24T04:30:59.939Z,26.59
2023-12-24T04:33:43.172Z,26.66
2023-12-24T04:36:34.226Z,26.65
2023-12-24T04:39:28.094Z,26.72
2023-12-24T04:42:19.090Z,26.64
2023-12-24T04:44:49.786Z,26.68
2023-12-24T04:47:20.305Z,26.66
2023-12-24T04:49:51.469Z,26.63
2023-12-24T04:52:22.555Z,26.66
2023-12-24T04:54:53.141Z,26.71
2023-12-24T04:57:24.431Z,26.73
2023-12-24T05:00:14.542Z,26.80
2023-12-24T05:02:49.095Z,26.83
2023-12-24T05:05:20.353Z,26.80
2023-12-24T05:07:51.041Z,26.84
2023-12-24T05:10:21.709Z,26.90
2023-12-24T05:12:53.666Z,26.82
2023-12-24T05:15:26.501Z,26.80
2023-12-24T05:17:58.596Z,26.81
2023-12-24T05:20:29.423Z,26.89
2023-12-24T05:23:01.591Z,26.87
2023-12-24T05:25:32.221Z,26.90
2023-12-24T05:28:02.750Z,26.90
2023-12-24T05:30:33.266Z,26.81
2023-12-24T05:33:04.066Z,26.84
2023-12-24T05:35:35.046Z,26.84
2023-12-24T05:38:06.106Z,26.84
2023-12-24T05:40:36.766Z,26.83
2023-12-24T05:43:07.310Z,26.87
2023-12-24T05:45:38.791Z,26.94
2023-12-24T05:48:09.888Z,26.97
2023-12-24T05:50:40.370Z,26.96
2023-12-24T05:53:11.005Z,26.96
2023-12-24T05:55:41.517Z,27.00
2023-12-24T05:58:12.065Z,27.05
2023-12-24T06:00:42.712Z,26.95
2023-12-24T06:03:13.350Z,27.00
2023-12-24T06:05:44.101Z,27.02
2023-12-24T06:08:20.902Z,27.03
2023-12-24T06:10:51.497Z,27.12
2023-12-24T06:13:22.073Z,27.04
2023-12-24T06:15:52.834Z,27.12
2023-12-24T06:18:23.563Z,27.10
2023-12-24T06:20:54.314Z,27.13
2023-12-24T06:23:24.835Z,27.17
2023-12-24T06:25:55.785Z,27.18
2023-12-24T06:28:26.137Z,27.13
2023-12-24T06:30:56.871Z,27.17
2023-12-24T12:13:01.388Z,27.17
2023-12-24T12:15:32.056Z,27.18
2023-12-24T12:18:02.665Z,27.25
2023-12-24T12:20:34.277Z,27.29
2023-12-24T12:23:05.192Z,27.30
2023-12-24T12:25:35.876Z,27.40
2023-12-24T12:28:07.271Z,27.44
2023-12-24T12:30:37.558Z,27.46
2023-12-24T12:33:08.707Z,27.51
2023-12-24T12:35:39.535Z,27.51
2023-12-24T12:38:10.351Z,27.50
2023-12-24T12:40:46.985Z,27.51
2023-12-24T12:43:20.917Z,27.52
2023-12-24T12:45:53.038Z,27.54
2023-12-24T12:48:24.488Z,27.53
2023-12-24T12:50:55.519Z,27.58
2023-12-24T12:53:30.174Z,27.56
2023-12-24T12:56:07.512Z,27.58
2023-12-24T12:58:38.203Z,27.56
2023-12-24T13:01:09.224Z,27.59
2023-12-24T13:03:42.676Z,27.62
2023-12-24T13:06:15.635Z,27.63
2023-12-24T13:08:46.416Z,27.63
2023-12-24T13:11:17.355Z,27.65
2023-12-24T13:13:47.838Z,27.65
2023-12-24T13:16:18.492Z,27.65
2023-12-24T13:18:49.229Z,27.65
2023-12-24T13:21:19.832Z,27.65
2023-12-24T13:23:52.271Z,27.66
2023-12-24T13:26:28.308Z,27.65
2023-12-24T13:29:01.902Z,27.66
2023-12-24T13:31:33.223Z,27.65
2023-12-24T13:34:03.892Z,27.69
2023-12-24T13:36:34.640Z,27.69
2023-12-24T13:39:05.122Z,27.69
2023-12-24T13:41:36.532Z,27.67
2023-12-24T13:44:07.443Z,27.69
2023-12-24T13:46:38.041Z,27.66
2023-12-24T13:49:11.611Z,27.70
2023-12-24T13:51:42.476Z,27.70
2023-12-24T13:54:13.325Z,27.68
2023-12-24T13:56:43.988Z,27.72
2023-12-24T13:59:14.815Z,27.72
2023-12-24T14:01:45.349Z,27.70
2023-12-24T14:04:16.212Z,27.70
2023-12-24T14:06:46.870Z,27.71
2023-12-24T14:09:17.374Z,27.70
2023-12-24T14:11:47.964Z,27.71
2023-12-24T14:14:18.664Z,27.72
2023-12-24T14:16:49.655Z,27.71
2023-12-24T14:19:20.920Z,27.71
2023-12-24T14:21:51.258Z,27.71
2023-12-24T14:24:22.103Z,27.70
2023-12-24T14:26:52.805Z,27.74
2023-12-24T14:29:23.396Z,27.70
2023-12-24T14:31:54.064Z,27.73
2023-12-24T14:34:24.823Z,27.72
2023-12-24T14:36:55.443Z,27.75
2023-12-24T14:39:26.483Z,27.72
2023-12-24T14:41:57.415Z,27.74
2023-12-24T14:44:27.995Z,27.74
2023-12-24T14:46:58.714Z,27.72
2023-12-24T14:49:30.367Z,27.71
2023-12-24T14:52:01.239Z,27.73
2023-12-24T14:54:31.819Z,27.71
2023-12-24T14:57:02.787Z,27.75
2023-12-24T14:59:33.366Z,27.74
2023-12-24T15:02:04.479Z,27.75
2023-12-24T15:04:35.068Z,27.77
2023-12-24T15:07:06.806Z,27.75
2023-12-24T15:09:37.053Z,27.76
2023-12-24T15:12:07.968Z,27.73
2023-12-24T15:14:38.800Z,27.74
2023-12-24T15:17:09.465Z,27.71
2023-12-24T15:19:40.010Z,27.75
2023-12-24T15:22:10.764Z,27.72
2023-12-24T15:24:41.594Z,27.72
2023-12-24T15:27:12.199Z,27.74
2023-12-24T15:29:42.818Z,27.70
2023-12-24T15:32:13.609Z,27.71
2023-12-24T15:34:44.035Z,27.67
2023-12-24T15:37:15.190Z,27.65
2023-12-24T15:39:45.806Z,27.64
2023-12-24T15:42:17.513Z,27.68
2023-12-24T15:44:48.120Z,27.68
2023-12-24T15:47:18.747Z,27.70
2023-12-24T15:49:52.587Z,27.66
2023-12-24T15:52:24.921Z,27.65
2023-12-24T15:54:55.687Z,27.65
2023-12-24T15:57:26.220Z,27.65
2023-12-24T15:59:56.760Z,27.66
2023-12-24T16:02:27.325Z,27.65
2023-12-24T16:04:57.977Z,27.63
2023-12-24T16:07:28.625Z,27.61
2023-12-24T16:09:59.301Z,27.61
2023-12-24T16:12:29.866Z,27.57
2023-12-24T16:15:00.651Z,27.58
2023-12-24T16:17:31.197Z,27.58
2023-12-24T16:20:01.892Z,27.58
2023-12-24T16:22:32.411Z,27.57
2023-12-24T16:25:03.033Z,27.56
2023-12-24T16:27:36.877Z,27.58
2023-12-24T16:30:11.579Z,27.58
2023-12-24T16:32:42.331Z,27.59
2023-12-24T16:35:13.781Z,27.61
2023-12-24T16:37:47.206Z,27.60
2023-12-24T16:40:17.989Z,27.61
2023-12-24T16:42:50.815Z,27.60
2023-12-24T16:45:21.869Z,27.63
2023-12-24T16:47:53.361Z,27.63
2023-12-24T16:50:24.237Z,27.62
2023-12-24T16:52:55.007Z,27.59
2023-12-24T16:55:25.909Z,27.63
2023-12-24T16:57:56.433Z,27.60
2023-12-24T17:00:27.455Z,27.59
2023-12-24T17:02:58.609Z,27.58
2023-12-24T17:05:29.671Z,27.60
2023-12-24T17:08:00.320Z,27.57
2023-12-24T17:10:30.920Z,27.59
2023-12-24T17:13:01.675Z,27.59
2023-12-24T17:15:32.380Z,27.62
2023-12-24T17:18:03.098Z,27.61
2023-12-24T17:20:33.940Z,27.61
2023-12-24T17:23:04.812Z,27.62
2023-12-24T17:25:35.385Z,27.62
2023-12-24T17:28:06.276Z,27.60
2023-12-24T17:30:36.962Z,27.60
2023-12-24T17:33:08.358Z,27.61
2023-12-24T17:35:39.401Z,27.62
2023-12-24T17:38:10.337Z,27.60
2023-12-24T17:40:41.038Z,27.58
2023-12-24T17:43:11.595Z,27.61
2023-12-24T17:45:43.584Z,27.61
2023-12-24T17:48:19.810Z,27.60
2023-12-24T17:50:53.076Z,27.60
2023-12-24T17:53:23.671Z,27.57
2023-12-24T17:55:54.413Z,27.59
2023-12-24T17:58:24.967Z,27.62
2023-12-24T18:00:55.568Z,27.59
2023-12-24T18:03:26.555Z,27.61
2023-12-24T18:05:57.617Z,27.61
2023-12-24T18:08:28.581Z,27.61
2023-12-24T18:10:59.184Z,27.59
2023-12-24T18:13:29.829Z,27.60
2023-12-24T18:16:00.323Z,27.55
2023-12-24T18:18:32.396Z,27.55
2023-12-24T18:21:03.447Z,27.55
2023-12-24T18:23:33.991Z,27.54
2023-12-24T18:26:06.472Z,27.53
2023-12-24T18:28:37.370Z,27.53
2023-12-24T18:31:08.071Z,27.55
2023-12-24T18:33:39.309Z,27.54
2023-12-24T18:36:10.257Z,27.54
2023-12-24T18:41:12.904Z,27.53
2023-12-24T18:43:43.412Z,27.51
2023-12-24T18:46:13.975Z,27.50
2023-12-24T18:48:44.513Z,27.48
2023-12-24T18:51:17.129Z,27.49
2023-12-24T18:56:31.750Z,27.45
2023-12-24T18:59:02.577Z,27.48
2023-12-24T19:01:33.201Z,27.47
2023-12-24T19:04:04.053Z,27.48
2023-12-24T19:06:38.757Z,27.46
2023-12-24T19:09:10.434Z,27.46
2023-12-24T19:11:40.900Z,27.43
2023-12-24T19:14:11.456Z,27.44
2023-12-24T19:16:42.025Z,27.43
2023-12-24T19:19:12.604Z,27.42
2023-12-24T19:21:43.213Z,27.43
2023-12-24T19:24:13.745Z,27.43
2023-12-24T19:26:45.714Z,27.44
2023-12-24T19:29:16.359Z,27.46
2023-12-24T19:31:47.032Z,27.44
2023-12-24T19:34:17.717Z,27.44
2023-12-24T19:36:49.793Z,27.44
2023-12-24T19:39:20.275Z,27.43
2023-12-24T19:41:50.848Z,27.41
2023-12-24T19:44:21.439Z,27.41
2023-12-24T19:46:52.027Z,27.41
2023-12-24T19:49:22.534Z,27.39
2023-12-24T19:51:53.305Z,27.40
2023-12-24T19:54:23.848Z,27.35
2023-12-24T19:56:54.577Z,27.38
2023-12-24T19:59:25.202Z,27.40
2023-12-24T20:01:55.713Z,27.39
2023-12-24T20:04:26.293Z,27.41
2023-12-24T20:06:56.908Z,27.37
2023-12-24T20:09:27.477Z,27.36
2023-12-24T20:11:58.302Z,27.36
2023-12-24T20:14:28.944Z,27.41
2023-12-24T20:16:59.760Z,27.40
2023-12-24T20:19:30.606Z,27.41
2023-12-24T20:22:01.212Z,27.41
2023-12-24T20:24:32.072Z,27.40
2023-12-24T20:27:02.950Z,27.39
2023-12-24T20:29:34.109Z,27.42
2023-12-24T20:32:04.760Z,27.40
2023-12-24T20:34:35.302Z,27.36
2023-12-24T20:37:06.090Z,27.36
2023-12-24T20:39:36.592Z,27.36
2023-12-24T20:42:07.758Z,27.36
2023-12-24T20:44:43.143Z,27.35
2023-12-24T20:47:13.764Z,27.33
2023-12-24T20:49:44.444Z,27.35
2023-12-24T20:52:15.235Z,27.34
2023-12-24T20:54:48.229Z,27.33
2023-12-24T20:57:18.964Z,27.30
2023-12-24T20:59:51.350Z,27.32
2023-12-24T21:02:22.245Z,27.30
2023-12-24T21:04:53.596Z,27.33
2023-12-24T21:07:24.032Z,27.30
2023-12-24T21:09:55.743Z,27.30
2023-12-24T21:12:27.448Z,27.31
2023-12-24T21:14:58.074Z,27.30
2023-12-24T21:17:28.868Z,27.31
2023-12-24T21:19:59.879Z,27.32
2023-12-24T21:22:30.409Z,27.29
2023-12-24T21:25:01.929Z,27.30
2023-12-24T21:27:32.745Z,27.25
2023-12-24T21:30:03.389Z,27.28
2023-12-24T21:32:34.041Z,27.27
2023-12-24T21:35:04.987Z,27.27
2023-12-24T21:37:35.518Z,27.24
2023-12-24T22:26:23.378Z,26.73
2023-12-24T22:28:53.957Z,26.78
2023-12-24T22:31:30.716Z,26.86
2023-12-24T22:50:34.809Z,26.93
2023-12-24T22:53:06.417Z,26.86
2023-12-24T22:55:36.945Z,26.88
2023-12-24T22:58:07.735Z,26.85
2023-12-24T23:00:38.526Z,26.83
2023-12-24T23:03:09.129Z,26.83
2023-12-24T23:05:39.864Z,26.78
2023-12-24T23:08:10.534Z,26.80
2023-12-24T23:10:41.107Z,26.78
2023-12-24T23:13:12.079Z,26.75
2023-12-24T23:15:42.595Z,26.73
2023-12-24T23:18:13.375Z,26.72
2023-12-24T23:20:44.211Z,26.73
2023-12-24T23:23:15.416Z,26.74
2023-12-24T23:25:46.077Z,26.74
2023-12-24T23:28:16.848Z,26.68
2023-12-24T23:30:47.888Z,26.70
2023-12-24T23:33:19.339Z,26.69
2023-12-24T23:35:57.825Z,26.65
2023-12-24T23:38:36.553Z,26.65
2023-12-24T23:41:07.457Z,26.65
2023-12-24T23:43:40.453Z,26.66
2023-12-24T23:46:15.051Z,26.68
2023-12-24T23:48:45.639Z,26.65
2023-12-24T23:51:16.958Z,26.66
2023-12-24T23:53:49.990Z,26.66
2023-12-24T23:56:22.215Z,26.68
2023-12-24T23:58:53.284Z,26.66
